Sara Borchard — V2BY8 — position and weather

sailwx.info

Track history (hours):
 
Tides and Currents Weather Stations Pressure Air Temp Water Temp Dewpoint Dewpoint Depression Visibility Wind Speed Wind Dir Waves Ship Positions

Sara Borchard

Last reported at 2014-Sep-22 18:10 UTC. Time now 2014-Sep-23 00:22 UTC.
Position N 39°35' E 001°09'.

Length 134 m; draft 6.8 m.

Type: Ship (hazmat cat A). MMSI: 304962000.

Date/timePositionNaut miles runAvg speedWind from/ knotsBaromVisibWave heightAir tempDewpointWater temp
2014-Sep-22 18:10N 39°35' E 001°09'1016.3
2014-Sep-22 17:33N 39°31' E 001°21'1616.3
2014-Sep-22 16:33N 39°25' E 001°40'1616.3
2014-Sep-22 15:33N 39°19' E 001°60'1716.5
2014-Sep-22 14:33N 39°12' E 002°20'1716.7
2014-Sep-22 13:33N 39°06' E 002°39'1716.6
2014-Sep-22 12:33N 39°00' E 002°60'1716.7
2014-Sep-22 11:33N 38°56' E 003°20'1717.0
2014-Sep-22 10:33N 38°52' E 003°41'1716.9
2014-Sep-22 09:33N 38°48' E 004°02'1716.6
2014-Sep-22 08:30N 38°43' E 004°24'11916.8
2014-Sep-22 01:25N 38°15' E 006°52'6817.6
2014-Sep-21 21:33N 37°59' E 008°16'1817.8
2014-Sep-21 20:33N 37°54' E 008°38'1717.0
2014-Sep-21 19:33N 37°50' E 008°59'1716.7
2014-Sep-21 18:33N 37°46' E 009°19'5216.6
2014-Sep-21 15:26N 37°38' E 010°24'1517.1
2014-Sep-21 14:32N 37°35' E 010°43'1917.3
2014-Sep-21 13:28N 37°31' E 011°06'1617.8
2014-Sep-21 12:33N 37°22' E 011°23'2217.8
2014-Sep-21 11:19N 37°11' E 011°47'1517.2
2014-Sep-21 10:27N 37°04' E 012°03'1517.3
2014-Sep-21 09:33N 36°59' E 012°21'1717.4
2014-Sep-21 08:33N 36°54' E 012°42'1817.6
2014-Sep-21 07:33N 36°49' E 013°03'1817.6
2014-Sep-21 06:33N 36°43' E 013°24'1717.3
2014-Sep-21 05:33N 36°37' E 013°45'1111.2
2014-Sep-21 04:33N 36°33' E 013°58'1 0.8
2014-Sep-21 03:33N 36°34' E 013°57'1212.5
2014-Sep-21 02:34N 36°30' E 014°12'1616.4
2014-Sep-21 01:34N 36°25' E 014°31'1716.9
2014-Sep-21 00:33N 36°19' E 014°51'1716.8
2014-Sep-20 23:33N 36°13' E 015°10'1616.5
2014-Sep-20 22:33N 36°08' E 015°30'10316.8
2014-Sep-20 16:26N 35°31' E 017°27'  
2014-Sep-17 11:34N 31°56' E 033°45'1716.8
2014-Sep-17 10:33N 31°54' E 034°05'1716.6
2014-Sep-17 09:33N 31°53' E 034°24'13 1.2
2014-Sep-16 23:08N 31°50' E 034°39'26 2.2
2014-Sep-16 11:33N 32°16' E 034°38'1615.9
2014-Sep-16 10:33N 32°31' E 034°43'1615.7
2014-Sep-16 09:33N 32°46' E 034°48'101 6.2
2014-Sep-15 17:11N 34°00' E 033°26'2716.2
2014-Sep-15 15:32N 34°24' E 033°12'1616.8
2014-Sep-15 14:33N 34°39' E 033°03'2 1.4
2014-Sep-15 13:17N 34°39' E 033°01'0 0.0
2014-Sep-15 12:20N 34°39' E 033°01'0 0.0
2014-Sep-15 10:28N 34°39' E 033°01'0 0.0
2014-Sep-15 09:24N 34°39' E 033°01'1 1.2
2014-Sep-15 08:33N 34°39' E 033°02'9 9.4
2014-Sep-15 07:33N 34°31' E 032°56'1616.0
2014-Sep-15 06:32N 34°33' E 032°37'34415.6
2014-Sep-14 08:33N 35°31' E 025°42'3816.3
2014-Sep-14 06:13N 35°37' E 024°56'1116.5
2014-Sep-14 05:33N 35°39' E 024°43'1616.2
2014-Sep-14 04:33N 35°42' E 024°24'2516.7
2014-Sep-14 03:04N 35°45' E 023°53'917.0
2014-Sep-14 02:33N 35°45' E 023°43'  
Track history (hours):
 
Tides and Currents Weather Stations Pressure Air Temp Water Temp Dewpoint Dewpoint Depression Visibility Wind Speed Wind Dir Waves Ship Positions

Sara Borchard

Last reported at 2014-Sep-22 18:10 UTC. Time now 2014-Sep-23 00:22 UTC.
Position N 39°35' E 001°09'.

Length 134 m; draft 6.8 m.

Type: Ship (hazmat cat A). MMSI: 304962000.

Date/timePositionNaut miles runAvg speedWind from/ knotsBaromVisibWave heightAir tempDewpointWater temp
2014-Sep-22 18:10N 39°35' E 001°09'1016.3
2014-Sep-22 17:33N 39°31' E 001°21'1616.3
2014-Sep-22 16:33N 39°25' E 001°40'1616.3
2014-Sep-22 15:33N 39°19' E 001°60'1716.5
2014-Sep-22 14:33N 39°12' E 002°20'1716.7
2014-Sep-22 13:33N 39°06' E 002°39'1716.6
2014-Sep-22 12:33N 39°00' E 002°60'1716.7
2014-Sep-22 11:33N 38°56' E 003°20'1717.0
2014-Sep-22 10:33N 38°52' E 003°41'1716.9
2014-Sep-22 09:33N 38°48' E 004°02'1716.6
2014-Sep-22 08:30N 38°43' E 004°24'11916.8
2014-Sep-22 01:25N 38°15' E 006°52'6817.6
2014-Sep-21 21:33N 37°59' E 008°16'1817.8
2014-Sep-21 20:33N 37°54' E 008°38'1717.0
2014-Sep-21 19:33N 37°50' E 008°59'1716.7
2014-Sep-21 18:33N 37°46' E 009°19'5216.6
2014-Sep-21 15:26N 37°38' E 010°24'1517.1
2014-Sep-21 14:32N 37°35' E 010°43'1917.3
2014-Sep-21 13:28N 37°31' E 011°06'1617.8
2014-Sep-21 12:33N 37°22' E 011°23'2217.8
2014-Sep-21 11:19N 37°11' E 011°47'1517.2
2014-Sep-21 10:27N 37°04' E 012°03'1517.3
2014-Sep-21 09:33N 36°59' E 012°21'1717.4
2014-Sep-21 08:33N 36°54' E 012°42'1817.6
2014-Sep-21 07:33N 36°49' E 013°03'1817.6
2014-Sep-21 06:33N 36°43' E 013°24'1717.3
2014-Sep-21 05:33N 36°37' E 013°45'1111.2
2014-Sep-21 04:33N 36°33' E 013°58'1 0.8
2014-Sep-21 03:33N 36°34' E 013°57'1212.5
2014-Sep-21 02:34N 36°30' E 014°12'1616.4
2014-Sep-21 01:34N 36°25' E 014°31'1716.9
2014-Sep-21 00:33N 36°19' E 014°51'1716.8
2014-Sep-20 23:33N 36°13' E 015°10'1616.5
2014-Sep-20 22:33N 36°08' E 015°30'10316.8
2014-Sep-20 16:26N 35°31' E 017°27'  
2014-Sep-17 11:34N 31°56' E 033°45'1716.8
2014-Sep-17 10:33N 31°54' E 034°05'1716.6
2014-Sep-17 09:33N 31°53' E 034°24'13 1.2
2014-Sep-16 23:08N 31°50' E 034°39'26 2.2
2014-Sep-16 11:33N 32°16' E 034°38'1615.9
2014-Sep-16 10:33N 32°31' E 034°43'1615.7
2014-Sep-16 09:33N 32°46' E 034°48'101 6.2
2014-Sep-15 17:11N 34°00' E 033°26'2716.2
2014-Sep-15 15:32N 34°24' E 033°12'1616.8
2014-Sep-15 14:33N 34°39' E 033°03'2 1.4
2014-Sep-15 13:17N 34°39' E 033°01'0 0.0
2014-Sep-15 12:20N 34°39' E 033°01'0 0.0
2014-Sep-15 10:28N 34°39' E 033°01'0 0.0
2014-Sep-15 09:24N 34°39' E 033°01'1 1.2
2014-Sep-15 08:33N 34°39' E 033°02'9 9.4
2014-Sep-15 07:33N 34°31' E 032°56'1616.0
2014-Sep-15 06:32N 34°33' E 032°37'34415.6
2014-Sep-14 08:33N 35°31' E 025°42'3816.3
2014-Sep-14 06:13N 35°37' E 024°56'1116.5
2014-Sep-14 05:33N 35°39' E 024°43'1616.2
2014-Sep-14 04:33N 35°42' E 024°24'2516.7
2014-Sep-14 03:04N 35°45' E 023°53'917.0
2014-Sep-14 02:33N 35°45' E 023°43'  

Dump ship's entire track history